Time;durP1;ratioP1;P1;durP2;ratioP2;P2;SDS_P1;SDS_P2;PMS_P1;PMS_P2;Temp;Humidity;BMP_temperature;BMP_pressure;BME280_temperature;BME280_humidity;BME280_pressure;Samples;Min_cycle;Max_cycle;Signal;HPM_P1;HPM_P2
2023/08/04 00:00:18;;;;;;;2.80;1.30;;;11.20;99.90;;;;;;2086580;28;20765;-63
2023/08/04 00:01:19;;;;;;;2.25;1.10;;;11.10;99.90;;;;;;2086483;28;20240;-63
2023/08/04 00:02:21;;;;;;;1.93;0.80;;;11.00;99.90;;;;;;2086673;28;20717;-63
2023/08/04 00:03:21;;;;;;;0.98;0.70;;;11.00;99.90;;;;;;2072200;28;20234;-63
2023/08/04 00:04:22;;;;;;;1.47;0.90;;;11.00;99.90;;;;;;2070854;28;20593;-62
2023/08/04 00:05:23;;;;;;;2.17;1.07;;;11.10;99.90;;;;;;2085958;28;20307;-63
2023/08/04 00:06:23;;;;;;;1.50;0.97;;;11.00;99.90;;;;;;2071215;28;20647;-63
2023/08/04 00:07:24;;;;;;;1.40;1.00;;;11.10;99.90;;;;;;2069808;28;20287;-62
2023/08/04 00:08:25;;;;;;;1.33;0.88;;;11.00;99.90;;;;;;2078601;28;20810;-63
2023/08/04 00:09:26;;;;;;;6.90;1.20;;;11.00;99.90;;;;;;2086163;28;20228;-63
2023/08/04 00:10:26;;;;;;;1.33;1.07;;;10.90;99.90;;;;;;2086608;28;20241;-63
2023/08/04 00:11:27;;;;;;;1.73;1.10;;;10.80;99.90;;;;;;2086586;28;20289;-63
2023/08/04 00:12:28;;;;;;;2.33;1.10;;;10.90;99.90;;;;;;2078251;28;20256;-63
2023/08/04 00:13:30;;;;;;;0.90;0.90;;;10.90;99.90;;;;;;2086598;28;20235;-63
2023/08/04 00:14:31;;;;;;;1.30;0.93;;;11.00;99.90;;;;;;2083825;28;20228;-63
2023/08/04 00:15:33;;;;;;;3.70;1.10;;;10.90;99.90;;;;;;2086616;28;20232;-63
2023/08/04 00:16:34;;;;;;;2.10;1.10;;;10.80;99.90;;;;;;2078411;28;20573;-63
2023/08/04 00:17:37;;;;;;;2.00;1.00;;;10.80;99.90;;;;;;2078123;28;20236;-63
2023/08/04 00:18:38;;;;;;;1.38;0.90;;;10.90;99.90;;;;;;2070105;28;20571;-63
2023/08/04 00:19:40;;;;;;;2.00;1.00;;;10.90;99.90;;;;;;2070412;28;20241;-64
2023/08/04 00:20:40;;;;;;;3.00;1.00;;;11.00;99.90;;;;;;2078268;28;20255;-64
2023/08/04 00:21:41;;;;;;;1.43;0.90;;;11.00;99.90;;;;;;2075056;28;20298;-64
2023/08/04 00:22:42;;;;;;;1.80;1.40;;;10.90;99.90;;;;;;2086434;28;20351;-64
2023/08/04 00:23:42;;;;;;;1.93;0.93;;;11.00;99.90;;;;;;2086489;28;20279;-63
2023/08/04 00:24:43;;;;;;;1.67;1.00;;;11.00;99.90;;;;;;2091104;28;20219;-64
2023/08/04 00:25:44;;;;;;;1.57;1.00;;;11.00;99.90;;;;;;2086922;28;20231;-64
2023/08/04 00:26:44;;;;;;;3.00;1.00;;;11.10;99.90;;;;;;2087448;28;20781;-63
2023/08/04 00:27:45;;;;;;;1.90;0.90;;;11.10;99.90;;;;;;2087109;28;20236;-64
2023/08/04 00:28:46;;;;;;;2.10;1.33;;;11.10;99.90;;;;;;2086668;28;20508;-64
2023/08/04 00:29:46;;;;;;;1.57;1.07;;;11.10;99.90;;;;;;2086586;28;20235;-64
2023/08/04 00:30:48;;;;;;;2.10;1.20;;;11.10;99.90;;;;;;2093737;28;20257;-64
2023/08/04 00:31:49;;;;;;;1.42;0.80;;;11.20;99.90;;;;;;2085984;28;20291;-63
2023/08/04 00:32:49;;;;;;;1.13;1.00;;;11.10;99.90;;;;;;2078428;28;20284;-64
2023/08/04 00:33:50;;;;;;;1.93;1.00;;;11.10;99.90;;;;;;2091082;28;20255;-64
2023/08/04 00:34:51;;;;;;;3.13;0.93;;;11.10;99.90;;;;;;2099405;28;20264;-64
2023/08/04 00:35:51;;;;;;;3.57;1.03;;;11.10;99.90;;;;;;2085778;28;20613;-63
2023/08/04 00:36:52;;;;;;;1.33;1.00;;;11.10;99.90;;;;;;2086686;28;20224;-64
2023/08/04 00:37:53;;;;;;;1.20;1.00;;;11.10;99.90;;;;;;2087058;28;20302;-64
2023/08/04 00:38:54;;;;;;;2.13;1.00;;;11.10;99.90;;;;;;2089362;28;20243;-64
2023/08/04 00:39:54;;;;;;;1.73;1.20;;;11.10;99.90;;;;;;2091041;28;20246;-63
2023/08/04 00:40:55;;;;;;;1.43;0.97;;;11.10;99.90;;;;;;2071036;28;20212;-64
2023/08/04 00:41:56;;;;;;;1.40;1.10;;;11.10;99.90;;;;;;2069121;28;20696;-66
2023/08/04 00:42:56;;;;;;;2.40;1.30;;;11.10;99.90;;;;;;2074576;28;20207;-63
2023/08/04 00:43:57;;;;;;;1.50;1.00;;;11.10;99.90;;;;;;2087476;28;20180;-64
2023/08/04 00:44:58;;;;;;;1.53;1.10;;;11.10;99.90;;;;;;2088136;28;20367;-64
2023/08/04 00:46:00;;;;;;;1.80;1.10;;;11.00;99.90;;;;;;2092737;28;20180;-63
2023/08/04 00:47:03;;;;;;;2.08;1.23;;;10.90;99.90;;;;;;2090162;28;20277;-64
2023/08/04 00:48:04;;;;;;;1.80;1.30;;;10.90;99.90;;;;;;2078752;28;20188;-63
2023/08/04 00:49:07;;;;;;;1.57;1.13;;;10.90;99.90;;;;;;2078031;28;20185;-65
2023/08/04 00:50:09;;;;;;;2.20;1.20;;;10.90;99.90;;;;;;2075465;28;20195;-64
2023/08/04 00:51:10;;;;;;;3.30;1.40;;;10.90;99.90;;;;;;2085653;28;20181;-64
2023/08/04 00:52:11;;;;;;;1.80;1.30;;;10.90;99.90;;;;;;2086577;28;20238;-64
2023/08/04 00:53:13;;;;;;;2.70;1.50;;;10.80;99.90;;;;;;2086465;28;20184;-64
2023/08/04 00:54:14;;;;;;;3.00;1.30;;;10.80;99.90;;;;;;2086490;28;20385;-63
2023/08/04 00:55:16;;;;;;;1.97;1.17;;;10.80;99.90;;;;;;2087129;28;20557;-64
2023/08/04 00:56:17;;;;;;;1.85;1.15;;;10.80;99.90;;;;;;2086585;28;20318;-63
2023/08/04 00:57:17;;;;;;;1.57;1.20;;;10.80;99.90;;;;;;2085732;28;20753;-64
2023/08/04 00:58:19;;;;;;;2.93;1.10;;;10.80;99.90;;;;;;2093062;28;20234;-64
2023/08/04 00:59:20;;;;;;;1.40;1.10;;;10.80;99.90;;;;;;2094376;28;20235;-64
2023/08/04 01:00:21;;;;;;;1.80;1.17;;;10.90;99.90;;;;;;2087301;28;20243;-64
2023/08/04 01:01:21;;;;;;;3.63;1.17;;;10.90;99.90;;;;;;2085711;28;20228;-64
2023/08/04 01:02:23;;;;;;;1.53;1.33;;;11.00;99.90;;;;;;2090447;28;20633;-64
2023/08/04 01:03:25;;;;;;;2.17;1.52;;;11.00;99.90;;;;;;2086608;28;20227;-64
2023/08/04 01:04:26;;;;;;;1.73;1.30;;;11.00;99.90;;;;;;2077944;28;20243;-64
2023/08/04 01:05:40;;;;;;;2.22;1.20;;;11.00;99.90;;;;;;2083167;28;20281;-64
2023/08/04 01:07:12;;;;;;;3.53;1.52;;;11.00;99.90;;;;;;2076107;28;20228;-63
2023/08/04 01:08:34;;;;;;;2.42;1.42;;;11.00;99.90;;;;;;2080515;28;20211;-62
2023/08/04 01:09:44;;;;;;;1.50;1.20;;;11.00;99.90;;;;;;2085717;28;20235;-64
2023/08/04 01:11:08;;;;;;;1.50;1.25;;;11.00;99.90;;;;;;2090757;28;20280;-64
2023/08/04 01:12:31;;;;;;;2.85;1.42;;;11.10;99.90;;;;;;2082591;28;20646;-64
2023/08/04 01:13:34;;;;;;;1.27;1.15;;;11.00;99.90;;;;;;2077906;28;20746;-63
2023/08/04 01:14:36;;;;;;;1.85;1.20;;;10.90;99.90;;;;;;2077685;28;20258;-64
2023/08/04 01:15:37;;;;;;;2.25;1.40;;;10.80;99.90;;;;;;2071163;28;20722;-64
2023/08/04 01:16:38;;;;;;;3.03;1.20;;;10.90;99.90;;;;;;2073592;28;20282;-64
2023/08/04 01:17:39;;;;;;;1.97;1.10;;;11.00;99.90;;;;;;2078046;28;20228;-63
2023/08/04 01:18:40;;;;;;;3.33;1.50;;;10.90;99.90;;;;;;2092536;28;20272;-63
2023/08/04 01:19:41;;;;;;;1.43;1.00;;;11.00;99.90;;;;;;2090663;28;20227;-63
2023/08/04 01:20:42;;;;;;;1.57;1.27;;;10.90;99.90;;;;;;2091096;28;20276;-63
2023/08/04 01:21:43;;;;;;;3.53;1.40;;;10.90;99.90;;;;;;2091899;28;20223;-63
2023/08/04 01:22:44;;;;;;;2.53;1.30;;;11.00;99.90;;;;;;2092571;28;20226;-63
2023/08/04 01:23:44;;;;;;;1.97;1.00;;;10.90;99.90;;;;;;2085576;28;20231;-64
2023/08/04 01:24:45;;;;;;;1.40;1.10;;;10.90;99.90;;;;;;2084464;28;20646;-64
2023/08/04 01:25:46;;;;;;;1.10;0.93;;;10.90;99.90;;;;;;2093204;28;20223;-68
2023/08/04 01:26:48;;;;;;;3.28;1.10;;;10.90;99.90;;;;;;2091051;28;20601;-64
2023/08/04 01:27:59;;;;;;;1.35;1.08;;;10.90;99.90;;;;;;2088376;28;20256;-64
2023/08/04 01:29:02;;;;;;;2.15;1.00;;;10.90;99.90;;;;;;2089049;28;20330;-64
2023/08/04 01:30:06;;;;;;;1.00;0.90;;;10.80;99.90;;;;;;2082534;28;20304;-63
2023/08/04 01:31:08;;;;;;;2.60;1.13;;;10.70;99.90;;;;;;2080995;28;20192;-64
2023/08/04 01:32:09;;;;;;;2.70;0.90;;;10.50;99.90;;;;;;2077825;28;20192;-64
2023/08/04 01:33:10;;;;;;;1.42;1.08;;;10.50;99.90;;;;;;2077869;28;20268;-64
2023/08/04 01:34:11;;;;;;;1.20;0.90;;;10.50;99.90;;;;;;2081767;28;20181;-64
2023/08/04 01:35:13;;;;;;;1.50;1.00;;;10.50;99.90;;;;;;2088285;28;20606;-64
2023/08/04 01:36:14;;;;;;;1.58;1.35;;;10.60;99.90;;;;;;2085337;28;20188;-63
2023/08/04 01:37:15;;;;;;;1.57;1.03;;;10.60;99.90;;;;;;2084969;28;20204;-64
2023/08/04 01:38:16;;;;;;;2.10;1.15;;;10.60;99.90;;;;;;2088823;28;20730;-63
2023/08/04 01:39:17;;;;;;;1.80;1.20;;;10.70;99.90;;;;;;2087232;28;20258;-64
2023/08/04 01:40:18;;;;;;;1.20;1.00;;;10.60;99.90;;;;;;2085009;28;20236;-64
2023/08/04 01:41:19;;;;;;;0.98;0.88;;;10.60;99.90;;;;;;2086197;28;20271;-64
2023/08/04 01:42:20;;;;;;;1.93;1.20;;;10.70;99.90;;;;;;2086352;28;20227;-63
2023/08/04 01:43:21;;;;;;;2.77;1.17;;;10.70;99.90;;;;;;2092502;28;20280;-63
2023/08/04 01:44:22;;;;;;;2.28;1.25;;;10.70;99.90;;;;;;2087180;28;20235;-63
2023/08/04 01:45:23;;;;;;;5.90;1.40;;;10.70;99.90;;;;;;2084922;28;20330;-64
2023/08/04 01:46:23;;;;;;;1.10;1.00;;;10.80;99.90;;;;;;2093825;28;20252;-63
2023/08/04 01:47:24;;;;;;;2.83;1.10;;;10.80;99.90;;;;;;2090862;28;20230;-63
2023/08/04 01:48:26;;;;;;;1.90;1.20;;;10.90;99.90;;;;;;2091371;28;20284;-63
2023/08/04 01:49:26;;;;;;;2.97;1.00;;;10.90;99.90;;;;;;2085794;28;20856;-63
2023/08/04 01:50:27;;;;;;;2.83;1.13;;;11.00;99.90;;;;;;2077455;28;20225;-63
2023/08/04 01:51:28;;;;;;;1.20;1.00;;;11.00;99.90;;;;;;2085782;28;20224;-63
2023/08/04 01:52:29;;;;;;;1.10;1.00;;;11.10;99.90;;;;;;2091566;28;20313;-66
2023/08/04 01:53:29;;;;;;;1.48;1.10;;;11.10;99.90;;;;;;2085014;28;20331;-63
2023/08/04 01:54:30;;;;;;;1.33;1.23;;;11.10;99.90;;;;;;2093970;28;20261;-63
2023/08/04 01:55:31;;;;;;;3.57;1.10;;;11.00;99.90;;;;;;2093998;28;20223;-64
2023/08/04 01:56:32;;;;;;;1.70;1.20;;;11.20;99.90;;;;;;2090488;28;20231;-63
2023/08/04 01:57:33;;;;;;;1.77;1.20;;;11.20;99.90;;;;;;2076829;28;20228;-63
2023/08/04 01:58:33;;;;;;;2.90;1.10;;;11.10;99.90;;;;;;2069171;28;20699;-63
2023/08/04 01:59:34;;;;;;;1.60;1.27;;;11.20;99.90;;;;;;2077121;28;20228;-63
2023/08/04 02:00:35;;;;;;;5.03;1.40;;;11.20;99.90;;;;;;2085527;28;20220;-63
2023/08/04 02:01:35;;;;;;;1.10;0.93;;;11.20;99.90;;;;;;2086024;28;20220;-63
2023/08/04 02:02:36;;;;;;;1.43;1.10;;;11.30;99.90;;;;;;2086077;28;20216;-64
2023/08/04 02:03:37;;;;;;;2.57;1.00;;;11.30;99.90;;;;;;2078586;28;20319;-63
2023/08/04 02:04:37;;;;;;;2.33;1.73;;;11.20;99.90;;;;;;2086984;28;20224;-63
2023/08/04 02:05:47;;;;;;;1.90;1.23;;;11.30;99.90;;;;;;2087892;28;20224;-63
2023/08/04 02:06:47;;;;;;;1.63;0.93;;;11.20;99.90;;;;;;2087903;28;20741;-63
2023/08/04 02:07:48;;;;;;;3.20;1.20;;;11.30;99.90;;;;;;2083528;28;20367;-63
2023/08/04 02:08:49;;;;;;;1.37;0.80;;;11.30;99.90;;;;;;2084772;28;20329;-63
2023/08/04 02:09:49;;;;;;;2.13;0.87;;;11.30;99.90;;;;;;2086409;28;20231;-64
2023/08/04 02:10:50;;;;;;;2.00;0.90;;;11.30;99.90;;;;;;2086654;28;20223;-63
2023/08/04 02:11:51;;;;;;;1.35;0.98;;;11.40;99.90;;;;;;2087215;28;20224;-63
2023/08/04 02:12:52;;;;;;;1.60;0.97;;;11.40;99.90;;;;;;2087139;28;20228;-64
2023/08/04 02:13:52;;;;;;;0.80;0.80;;;11.40;99.90;;;;;;2087869;28;20223;-63
2023/08/04 02:14:53;;;;;;;0.83;0.80;;;11.50;99.90;;;;;;2086950;28;20248;-63
2023/08/04 02:15:54;;;;;;;2.30;1.33;;;11.60;99.90;;;;;;2087057;28;20227;-64
2023/08/04 02:16:56;;;;;;;3.60;1.00;;;11.60;99.90;;;;;;2092016;28;20228;-64
2023/08/04 02:17:56;;;;;;;3.05;0.90;;;11.70;99.90;;;;;;2091539;28;20216;-63
2023/08/04 02:19:08;;;;;;;1.40;0.80;;;11.70;99.90;;;;;;2088568;28;20503;-63
2023/08/04 02:20:10;;;;;;;1.65;1.00;;;11.60;99.90;;;;;;2089293;28;20223;-64
2023/08/04 02:21:10;;;;;;;0.70;0.70;;;11.60;99.90;;;;;;2087299;28;20204;-64
2023/08/04 02:22:11;;;;;;;2.37;1.37;;;11.60;99.90;;;;;;2092595;28;20195;-63
2023/08/04 02:23:12;;;;;;;1.00;0.80;;;11.70;99.90;;;;;;2095044;28;20712;-65
2023/08/04 02:24:13;;;;;;;1.67;0.88;;;11.80;99.90;;;;;;2088980;28;20650;-64
2023/08/04 02:25:13;;;;;;;1.20;0.90;;;11.80;99.90;;;;;;2092030;28;20179;-64
2023/08/04 02:26:14;;;;;;;1.30;1.17;;;11.80;99.90;;;;;;2092236;28;20180;-64
2023/08/04 02:27:15;;;;;;;2.73;1.10;;;11.70;99.90;;;;;;2083917;28;20272;-64
2023/08/04 02:28:15;;;;;;;1.03;0.93;;;11.70;99.90;;;;;;2085045;28;20367;-64
2023/08/04 02:29:16;;;;;;;2.37;1.40;;;11.70;99.90;;;;;;2086984;28;20309;-64
2023/08/04 02:30:17;;;;;;;2.33;1.03;;;11.80;99.90;;;;;;2086992;28;20656;-63
2023/08/04 02:31:18;;;;;;;1.50;0.90;;;11.90;99.90;;;;;;2087297;28;20330;-63
2023/08/04 02:32:19;;;;;;;3.30;1.13;;;11.90;99.90;;;;;;2086990;28;20725;-64
2023/08/04 02:33:20;;;;;;;0.85;0.82;;;12.00;99.90;;;;;;2094866;28;20242;-64
2023/08/04 02:34:21;;;;;;;1.17;1.00;;;12.10;99.90;;;;;;2094986;28;20310;-63
2023/08/04 02:35:23;;;;;;;1.83;1.20;;;12.20;99.90;;;;;;2086996;28;20223;-63
2023/08/04 02:36:23;;;;;;;2.38;1.05;;;12.10;99.90;;;;;;2078794;28;20224;-65
2023/08/04 02:37:24;;;;;;;0.93;0.87;;;12.20;99.90;;;;;;2078367;28;20240;-64
2023/08/04 02:38:25;;;;;;;1.47;1.00;;;12.20;99.90;;;;;;2092599;28;20230;-65
2023/08/04 02:39:25;;;;;;;2.50;1.10;;;12.10;99.90;;;;;;2087296;28;20231;-65
2023/08/04 02:40:26;;;;;;;1.67;0.83;;;12.20;99.90;;;;;;2078597;28;20259;-65
2023/08/04 02:41:27;;;;;;;2.45;1.02;;;12.30;99.90;;;;;;2093701;28;20309;-65
2023/08/04 02:42:28;;;;;;;2.30;0.93;;;12.30;99.90;;;;;;2091958;28;20288;-65
2023/08/04 02:43:32;;;;;;;1.10;1.00;;;12.40;99.90;;;;;;2091283;28;20227;-64
2023/08/04 02:44:32;;;;;;;2.45;1.02;;;12.40;99.90;;;;;;2087121;28;20706;-65
2023/08/04 02:45:33;;;;;;;1.50;1.13;;;12.30;99.90;;;;;;2087003;28;20227;-65
2023/08/04 02:46:34;;;;;;;2.77;1.57;;;12.30;99.90;;;;;;2086340;28;20276;-65
2023/08/04 02:47:36;;;;;;;2.77;2.23;;;12.30;99.90;;;;;;2098418;28;20247;-65
2023/08/04 02:48:37;;;;;;;2.92;2.10;;;12.40;99.90;;;;;;2094448;28;20239;-64
2023/08/04 02:49:38;;;;;;;5.68;2.80;;;12.30;99.90;;;;;;2086230;28;20231;-65
2023/08/04 02:50:39;;;;;;;6.10;3.87;;;12.30;99.90;;;;;;2078360;28;20232;-64
2023/08/04 02:51:40;;;;;;;6.22;3.95;;;12.30;99.90;;;;;;2078831;28;20596;-65
2023/08/04 02:52:41;;;;;;;3.47;2.80;;;12.30;99.90;;;;;;2080183;28;20298;-64
2023/08/04 02:53:46;;;;;;;5.60;3.40;;;12.30;99.90;;;;;;2086730;28;20235;-65
2023/08/04 02:54:47;;;;;;;4.90;2.90;;;12.30;99.90;;;;;;2085280;28;20255;-64
2023/08/04 02:55:48;;;;;;;4.30;2.60;;;12.30;99.90;;;;;;2086162;28;20605;-64
2023/08/04 02:56:48;;;;;;;4.20;2.37;;;12.20;99.90;;;;;;2092315;28;20938;-65
2023/08/04 02:57:49;;;;;;;3.50;2.20;;;12.20;99.90;;;;;;2092300;28;20225;-65
2023/08/04 02:58:50;;;;;;;1.57;1.20;;;12.20;99.90;;;;;;2093156;28;20232;-65
2023/08/04 02:59:50;;;;;;;1.57;1.20;;;12.20;99.90;;;;;;2092070;28;20248;-65
2023/08/04 03:00:53;;;;;;;1.63;1.03;;;12.30;99.90;;;;;;2070614;28;20209;-64
2023/08/04 03:01:53;;;;;;;1.80;1.00;;;12.30;99.90;;;;;;2077955;28;20221;-65
2023/08/04 03:02:54;;;;;;;1.67;1.20;;;12.30;99.90;;;;;;2086846;28;20223;-65
2023/08/04 03:03:55;;;;;;;1.20;1.10;;;12.30;99.90;;;;;;2101098;28;20215;-65
2023/08/04 03:04:55;;;;;;;2.43;1.00;;;12.30;99.90;;;;;;2093556;28;20216;-65
2023/08/04 03:05:57;;;;;;;1.70;0.83;;;12.30;99.90;;;;;;2089385;28;20234;-67
2023/08/04 03:06:58;;;;;;;2.13;1.30;;;12.30;99.90;;;;;;2077967;28;20216;-64
2023/08/04 03:07:59;;;;;;;2.43;1.63;;;12.20;99.90;;;;;;2076543;28;20228;-65
2023/08/04 03:08:59;;;;;;;2.10;1.80;;;12.20;99.90;;;;;;2075566;28;20224;-65
2023/08/04 03:10:00;;;;;;;1.90;1.60;;;12.10;99.90;;;;;;2074641;28;20220;-65
2023/08/04 03:11:01;;;;;;;2.38;1.52;;;12.10;99.90;;;;;;2082623;28;20185;-64
2023/08/04 03:12:02;;;;;;;2.60;1.73;;;12.20;99.90;;;;;;2078110;28;20981;-65
2023/08/04 03:13:03;;;;;;;1.95;1.42;;;12.10;99.90;;;;;;2077991;28;20215;-65
2023/08/04 03:14:04;;;;;;;1.80;1.40;;;12.10;99.90;;;;;;2078722;28;20186;-65
2023/08/04 03:15:05;;;;;;;2.00;1.33;;;12.20;99.90;;;;;;2072059;28;20258;-65
2023/08/04 03:16:06;;;;;;;1.88;1.35;;;12.30;99.90;;;;;;2068759;28;20194;-65
2023/08/04 03:17:07;;;;;;;1.37;0.93;;;12.30;99.90;;;;;;2079230;28;20215;-65
2023/08/04 03:18:07;;;;;;;1.40;0.90;;;12.40;99.90;;;;;;2086266;28;20548;-65
2023/08/04 03:19:08;;;;;;;3.97;1.40;;;12.40;99.90;;;;;;2079695;28;20182;-64
2023/08/04 03:20:09;;;;;;;1.53;1.20;;;12.40;99.90;;;;;;2079110;28;20174;-65
2023/08/04 03:21:10;;;;;;;1.85;1.00;;;12.40;99.90;;;;;;2080994;28;20182;-65
2023/08/04 03:22:11;;;;;;;1.80;1.07;;;12.40;99.90;;;;;;2081945;28;20180;-64
2023/08/04 03:23:11;;;;;;;4.13;1.10;;;12.40;99.90;;;;;;2082522;28;20626;-63
2023/08/04 03:24:12;;;;;;;3.60;1.00;;;12.50;99.90;;;;;;2084389;28;20190;-65
2023/08/04 03:25:14;;;;;;;2.53;1.10;;;12.60;99.90;;;;;;2080593;28;20192;-64
2023/08/04 03:26:14;;;;;;;1.58;1.15;;;12.60;99.90;;;;;;2090743;28;20175;-64
2023/08/04 03:27:15;;;;;;;2.07;1.20;;;12.60;99.90;;;;;;2085932;28;20185;-64
2023/08/04 03:28:16;;;;;;;1.30;0.90;;;12.60;99.90;;;;;;2086635;28;20236;-64
2023/08/04 03:29:17;;;;;;;2.53;1.17;;;12.40;99.90;;;;;;2076953;28;20253;-64
2023/08/04 03:30:17;;;;;;;1.47;1.10;;;12.40;99.90;;;;;;2078368;28;20738;-64
2023/08/04 03:31:18;;;;;;;1.07;0.80;;;12.40;99.90;;;;;;2075396;28;20293;-63
2023/08/04 03:32:19;;;;;;;1.77;0.90;;;12.40;99.90;;;;;;2081227;28;20260;-64
2023/08/04 03:33:20;;;;;;;2.63;1.00;;;12.40;99.90;;;;;;2081515;28;20369;-62
2023/08/04 03:34:20;;;;;;;3.33;1.10;;;12.40;99.90;;;;;;2085018;28;20230;-64
2023/08/04 03:35:21;;;;;;;1.63;1.27;;;12.50;99.90;;;;;;2085002;28;20232;-64
2023/08/04 03:36:22;;;;;;;1.20;0.90;;;12.50;99.90;;;;;;2092890;28;20229;-63
2023/08/04 03:37:22;;;;;;;1.70;0.97;;;12.50;99.90;;;;;;2093518;28;20239;-63
2023/08/04 03:38:23;;;;;;;0.90;0.90;;;12.40;99.90;;;;;;2080833;28;20269;-63
2023/08/04 03:39:24;;;;;;;1.53;1.00;;;12.40;99.90;;;;;;2081713;28;20224;-64
2023/08/04 03:40:25;;;;;;;1.53;1.20;;;12.30;99.90;;;;;;2083578;28;20241;-69
2023/08/04 03:41:25;;;;;;;4.57;1.30;;;12.40;99.90;;;;;;2077961;28;20235;-64
2023/08/04 03:42:26;;;;;;;5.07;1.13;;;12.40;99.90;;;;;;2068745;28;20240;-64
2023/08/04 03:43:27;;;;;;;1.80;1.00;;;12.30;99.90;;;;;;2079019;28;20236;-64
2023/08/04 03:44:28;;;;;;;1.90;0.90;;;12.30;99.90;;;;;;2080514;28;20264;-63
2023/08/04 03:45:30;;;;;;;1.30;0.90;;;12.40;99.90;;;;;;2077352;28;20283;-64
2023/08/04 03:46:31;;;;;;;1.20;1.00;;;12.40;99.90;;;;;;2077895;28;20350;-64
2023/08/04 03:47:31;;;;;;;2.10;1.00;;;12.50;99.90;;;;;;2077443;28;20648;-64
2023/08/04 03:48:32;;;;;;;1.50;0.80;;;12.40;99.90;;;;;;2082537;28;20232;-63
2023/08/04 03:49:33;;;;;;;2.40;0.90;;;12.50;99.90;;;;;;2071423;28;20232;-64
2023/08/04 03:50:34;;;;;;;3.40;1.27;;;12.50;99.90;;;;;;2076505;28;20225;-64
2023/08/04 03:51:35;;;;;;;2.60;0.90;;;12.50;99.90;;;;;;2078241;28;20236;-64
2023/08/04 03:52:35;;;;;;;1.37;0.90;;;12.50;99.90;;;;;;2084589;28;20224;-64
2023/08/04 03:53:36;;;;;;;1.10;0.93;;;12.60;99.90;;;;;;2060782;28;20313;-63
2023/08/04 03:54:37;;;;;;;2.83;1.00;;;12.50;99.90;;;;;;2070106;28;20233;-64
2023/08/04 03:55:37;;;;;;;1.80;0.90;;;12.60;99.90;;;;;;2081782;28;20808;-64
2023/08/04 03:56:38;;;;;;;1.07;0.90;;;12.70;99.90;;;;;;2069155;28;20233;-63
2023/08/04 03:57:39;;;;;;;0.63;0.63;;;12.70;99.90;;;;;;2077565;28;20312;-64
2023/08/04 03:58:40;;;;;;;2.90;0.80;;;12.70;99.90;;;;;;2085430;28;20231;-64
2023/08/04 03:59:41;;;;;;;1.35;1.05;;;12.70;99.90;;;;;;2078148;28;20235;-64
2023/08/04 04:00:41;;;;;;;1.47;1.10;;;12.60;99.90;;;;;;2077123;28;20316;-64
2023/08/04 04:01:42;;;;;;;2.00;0.80;;;12.60;99.90;;;;;;2080914;28;20230;-64
2023/08/04 04:02:43;;;;;;;3.53;1.20;;;12.50;99.90;;;;;;2077118;28;20232;-64
2023/08/04 04:03:44;;;;;;;1.33;0.80;;;12.50;99.90;;;;;;2079453;28;20726;-64
2023/08/04 04:04:45;;;;;;;3.27;1.30;;;12.40;99.90;;;;;;2080787;28;20219;-64
2023/08/04 04:05:45;;;;;;;1.10;0.90;;;12.40;99.90;;;;;;2071557;28;20217;-64
2023/08/04 04:06:46;;;;;;;2.60;1.00;;;12.40;99.90;;;;;;2081414;28;20314;-64
2023/08/04 04:07:47;;;;;;;2.28;0.90;;;12.40;99.90;;;;;;2078885;28;20227;-64
2023/08/04 04:08:48;;;;;;;1.10;0.97;;;12.40;99.90;;;;;;2079222;28;20605;-63
2023/08/04 04:09:48;;;;;;;1.57;1.13;;;12.40;99.90;;;;;;2081364;28;20228;-63
2023/08/04 04:10:49;;;;;;;1.07;0.80;;;12.50;99.90;;;;;;2077550;28;20228;-63
2023/08/04 04:11:50;;;;;;;1.57;1.00;;;12.40;99.90;;;;;;2079329;28;21639;-64
2023/08/04 04:12:50;;;;;;;2.17;1.20;;;12.40;99.90;;;;;;2078657;28;20307;-65
2023/08/04 04:13:51;;;;;;;1.80;1.27;;;12.30;99.90;;;;;;2078428;28;20227;-65
2023/08/04 04:14:53;;;;;;;1.63;1.03;;;12.30;99.90;;;;;;2083389;28;20296;-65
2023/08/04 04:15:53;;;;;;;2.72;1.52;;;12.30;99.90;;;;;;2077993;28;20216;-65
2023/08/04 04:16:55;;;;;;;2.13;1.53;;;12.30;99.90;;;;;;2085778;28;20220;-65
2023/08/04 04:17:55;;;;;;;1.10;1.00;;;12.20;99.90;;;;;;2076033;28;20313;-66
2023/08/04 04:18:56;;;;;;;1.67;0.80;;;12.10;99.90;;;;;;2076063;28;20628;-66
2023/08/04 04:19:57;;;;;;;1.33;1.00;;;12.00;99.90;;;;;;2078325;28;20212;-65
2023/08/04 04:20:57;;;;;;;1.97;1.27;;;12.00;99.90;;;;;;2078439;28;20184;-64
2023/08/04 04:21:58;;;;;;;2.03;1.00;;;12.00;99.90;;;;;;2077824;28;20177;-65
2023/08/04 04:22:59;;;;;;;1.10;1.00;;;12.00;99.90;;;;;;2079249;28;20177;-64
2023/08/04 04:24:00;;;;;;;3.17;1.13;;;12.10;99.90;;;;;;2084734;28;20193;-64
2023/08/04 04:25:02;;;;;;;3.13;1.20;;;12.20;99.90;;;;;;2086112;28;20181;-64
2023/08/04 04:26:07;;;;;;;1.25;1.00;;;12.10;99.90;;;;;;2093227;28;20180;-64
2023/08/04 04:27:07;;;;;;;1.60;0.90;;;12.10;99.90;;;;;;2090591;28;20265;-65
2023/08/04 04:28:08;;;;;;;2.43;1.00;;;12.10;99.90;;;;;;2082122;28;20193;-65
2023/08/04 04:29:09;;;;;;;1.13;1.00;;;12.10;99.90;;;;;;2083041;28;20184;-64
2023/08/04 04:30:10;;;;;;;2.23;1.40;;;12.10;99.90;;;;;;2085551;28;20187;-65
2023/08/04 04:31:10;;;;;;;1.50;0.97;;;12.10;99.90;;;;;;2072270;28;20189;-65
2023/08/04 04:32:11;;;;;;;1.80;1.10;;;12.20;99.90;;;;;;2071792;28;20213;-64
2023/08/04 04:33:12;;;;;;;2.97;1.17;;;12.10;99.90;;;;;;2081287;28;20590;-65
2023/08/04 04:34:13;;;;;;;1.10;1.00;;;12.20;99.90;;;;;;2090524;28;20189;-65
2023/08/04 04:35:14;;;;;;;2.13;1.50;;;12.20;99.90;;;;;;2081261;28;20183;-65
2023/08/04 04:36:14;;;;;;;1.80;1.07;;;12.30;99.90;;;;;;2085597;28;20323;-65
2023/08/04 04:37:15;;;;;;;2.20;1.27;;;12.20;99.90;;;;;;2079864;28;20240;-65
2023/08/04 04:38:16;;;;;;;3.77;1.37;;;12.20;99.90;;;;;;2072432;28;20307;-65
2023/08/04 04:39:16;;;;;;;1.30;1.17;;;12.30;99.90;;;;;;2081398;28;20278;-65
2023/08/04 04:40:17;;;;;;;3.47;1.07;;;12.40;99.90;;;;;;2083154;28;20239;-65
2023/08/04 04:41:18;;;;;;;3.00;1.30;;;12.50;99.90;;;;;;2084275;28;20234;-65
2023/08/04 04:42:19;;;;;;;1.60;1.10;;;12.60;99.90;;;;;;2086015;28;20703;-64
2023/08/04 04:43:20;;;;;;;2.23;1.20;;;12.60;99.90;;;;;;2079837;28;20231;-67
2023/08/04 04:44:20;;;;;;;1.63;1.17;;;12.70;99.90;;;;;;2075391;28;20221;-65
2023/08/04 04:45:21;;;;;;;1.37;1.10;;;12.80;99.90;;;;;;2076307;28;20703;-65
2023/08/04 04:46:22;;;;;;;1.23;1.07;;;12.90;99.90;;;;;;2084514;28;20711;-65
2023/08/04 04:47:22;;;;;;;1.80;1.13;;;12.90;99.90;;;;;;2078974;28;20272;-65
2023/08/04 04:48:24;;;;;;;1.47;1.00;;;13.00;99.90;;;;;;2077894;28;20256;-65
2023/08/04 04:49:25;;;;;;;2.47;1.00;;;13.00;99.90;;;;;;2074994;28;20267;-65
2023/08/04 04:50:25;;;;;;;1.97;1.27;;;13.10;99.90;;;;;;2083572;28;20679;-65
2023/08/04 04:51:28;;;;;;;1.97;1.13;;;13.20;99.90;;;;;;2078552;28;20232;-65
2023/08/04 04:52:38;;;;;;;2.95;0.95;;;13.10;99.90;;;;;;2082337;28;20319;-65
2023/08/04 04:53:38;;;;;;;1.73;1.08;;;13.10;99.90;;;;;;2089085;28;20291;-65
2023/08/04 04:54:40;;;;;;;2.50;1.20;;;13.10;99.90;;;;;;2091585;28;20247;-64
2023/08/04 04:55:41;;;;;;;3.22;1.23;;;13.10;99.90;;;;;;2085679;28;20239;-65
2023/08/04 04:56:41;;;;;;;2.55;1.25;;;13.20;99.90;;;;;;2086438;28;20365;-65
2023/08/04 04:57:42;;;;;;;2.60;1.07;;;13.20;99.90;;;;;;2092822;28;20227;-65
2023/08/04 04:58:43;;;;;;;2.70;1.20;;;13.30;99.90;;;;;;2089520;28;20249;-65
2023/08/04 04:59:44;;;;;;;2.37;0.97;;;13.40;99.90;;;;;;2090077;28;20216;-64
2023/08/04 05:00:45;;;;;;;6.77;1.70;;;13.50;99.90;;;;;;2091106;28;20227;-65
2023/08/04 05:01:46;;;;;;;1.00;0.82;;;13.50;99.90;;;;;;2073645;28;20318;-65
2023/08/04 05:02:46;;;;;;;1.60;0.90;;;13.50;99.90;;;;;;2061091;28;20230;-65
2023/08/04 05:03:47;;;;;;;0.90;0.90;;;13.60;99.90;;;;;;2071865;28;20229;-62
2023/08/04 05:04:48;;;;;;;2.87;1.03;;;13.60;99.90;;;;;;2084234;28;20228;-63
2023/08/04 05:05:50;;;;;;;0.93;0.90;;;13.70;99.90;;;;;;2071845;28;20320;-62
2023/08/04 05:06:50;;;;;;;2.58;1.02;;;13.70;99.90;;;;;;2075717;28;20340;-63
2023/08/04 05:07:51;;;;;;;1.37;0.90;;;13.80;99.90;;;;;;2074696;28;20233;-62
2023/08/04 05:08:52;;;;;;;2.60;1.00;;;13.70;99.90;;;;;;2060788;28;20242;-63
2023/08/04 05:09:54;;;;;;;1.50;1.13;;;13.80;99.90;;;;;;2076234;28;20244;-63
2023/08/04 05:10:55;;;;;;;2.83;0.90;;;13.80;99.90;;;;;;2081871;28;20644;-63
2023/08/04 05:11:55;;;;;;;1.63;0.70;;;13.90;99.90;;;;;;2069566;28;20248;-63
2023/08/04 05:12:56;;;;;;;2.67;0.80;;;13.90;99.90;;;;;;2075501;28;20596;-65
2023/08/04 05:13:57;;;;;;;3.83;0.90;;;14.00;99.90;;;;;;2077565;28;20185;-64
2023/08/04 05:14:58;;;;;;;5.10;1.10;;;14.00;99.90;;;;;;2069320;28;20780;-62
2023/08/04 05:15:58;;;;;;;0.80;0.80;;;13.90;99.90;;;;;;2069640;28;20178;-63
2023/08/04 05:16:59;;;;;;;1.00;0.90;;;13.80;99.90;;;;;;2069024;28;20786;-63
2023/08/04 05:18:00;;;;;;;3.70;1.00;;;13.70;99.90;;;;;;2071993;28;20292;-62
2023/08/04 05:19:01;;;;;;;1.08;0.70;;;13.70;99.90;;;;;;2092732;28;20255;-64
2023/08/04 05:20:03;;;;;;;1.00;0.90;;;13.60;99.90;;;;;;2081114;28;20181;-63